Time;durP1;ratioP1;P1;durP2;ratioP2;P2;SDS_P1;SDS_P2;PMS_P1;PMS_P2;Temp;Humidity;BMP_temperature;BMP_pressure;BME280_temperature;BME280_humidity;BME280_pressure;Samples;Min_cycle;Max_cycle;Signal;HPM_P1;HPM_P2
2024/01/27 00:00:44;;;;;;;;;;;;;;;9.31;89.79;100526.50;106059;1254;60562;-76
2024/01/27 00:03:17;;;;;;;;;;;;;;;9.35;89.18;100526.78;106065;1253;60572;-76
2024/01/27 00:05:50;;;;;;;;;;;;;;;9.36;89.05;100526.46;106129;1259;73816;-76
2024/01/27 00:08:23;;;;;;;;;;;;;;;9.44;88.30;100527.45;105950;1256;67640;-76
2024/01/27 00:10:57;;;;;;;;;;;;;;;9.39;88.13;100530.73;105964;1254;72720;-77
2024/01/27 00:13:30;;;;;;;;;;;;;;;9.38;88.58;100533.01;105956;1259;60878;-77
2024/01/27 00:16:03;;;;;;;;;;;;;;;9.30;88.85;100534.30;106049;1254;60553;-77
2024/01/27 00:18:36;;;;;;;;;;;;;;;9.17;90.03;100537.09;106095;1253;72631;-77
2024/01/27 00:21:09;;;;;;;;;;;;;;;9.09;90.70;100536.96;105957;1253;68545;-78
2024/01/27 00:23:43;;;;;;;;;;;;;;;9.00;91.56;100538.46;105793;1259;71821;-77
2024/01/27 00:26:17;;;;;;;;;;;;;;;9.01;91.54;100538.61;105934;1256;60552;-77
2024/01/27 00:28:49;;;;;;;;;;;;;;;9.00;91.66;100541.55;106078;1256;60823;-77
2024/01/27 00:31:22;;;;;;;;;;;;;;;8.99;91.66;100542.31;105983;1254;72547;-76
2024/01/27 00:33:55;;;;;;;;;;;;;;;8.98;91.86;100543.67;106029;1253;68336;-76
2024/01/27 00:36:28;;;;;;;;;;;;;;;8.95;92.27;100540.95;106028;1254;72665;-77
2024/01/27 00:39:01;;;;;;;;;;;;;;;8.87;92.87;100541.12;105890;1253;60573;-77
2024/01/27 00:41:34;;;;;;;;;;;;;;;8.87;92.75;100543.08;106028;1257;60626;-77
2024/01/27 00:44:02;;;;;;;;;;;;;;;8.81;93.39;100541.52;106258;1253;72599;-77
2024/01/27 00:46:36;;;;;;;;;;;;;;;8.70;94.08;100541.59;105910;1257;68362;-77
2024/01/27 00:49:08;;;;;;;;;;;;;;;8.69;94.33;100538.68;105848;1259;71470;-77
2024/01/27 00:51:41;;;;;;;;;;;;;;;8.73;94.39;100540.14;106261;1253;60964;-77
2024/01/27 00:54:15;;;;;;;;;;;;;;;8.83;93.63;100541.01;106010;1259;60435;-77
2024/01/27 00:56:49;;;;;;;;;;;;;;;8.87;93.23;100540.46;106262;1253;73865;-77
2024/01/27 00:59:22;;;;;;;;;;;;;;;8.93;92.89;100537.44;106185;1254;68373;-77
2024/01/27 01:01:56;;;;;;;;;;;;;;;8.89;93.01;100539.39;106175;1256;72662;-77
2024/01/27 01:04:30;;;;;;;;;;;;;;;8.84;93.33;100540.01;105882;1257;60505;-77
2024/01/27 01:07:03;;;;;;;;;;;;;;;8.76;94.15;100537.20;106088;1254;60505;-77
2024/01/27 01:09:37;;;;;;;;;;;;;;;8.79;93.91;100533.89;106072;1256;73825;-77
2024/01/27 01:12:11;;;;;;;;;;;;;;;8.87;93.45;100535.13;106018;1256;69694;-77
2024/01/27 01:14:44;;;;;;;;;;;;;;;8.82;93.77;100531.67;105966;1253;72698;-77
2024/01/27 01:17:18;;;;;;;;;;;;;;;8.80;93.84;100531.89;106016;1259;60896;-77
2024/01/27 01:19:52;;;;;;;;;;;;;;;8.78;94.04;100536.02;105989;1256;60495;-77
2024/01/27 01:22:25;;;;;;;;;;;;;;;8.75;94.33;100531.70;106126;1256;72558;-77
2024/01/27 01:24:59;;;;;;;;;;;;;;;8.70;94.66;100533.52;106124;1254;67023;-77
2024/01/27 01:27:33;;;;;;;;;;;;;;;8.67;94.88;100529.52;106055;1258;73802;-79
2024/01/27 01:30:07;;;;;;;;;;;;;;;8.66;95.20;100532.69;106157;1254;60578;-77
2024/01/27 01:32:40;;;;;;;;;;;;;;;8.63;95.28;100530.55;106104;1258;60502;-77
2024/01/27 01:35:14;;;;;;;;;;;;;;;8.64;95.23;100531.05;105969;1254;74168;-77
2024/01/27 01:37:48;;;;;;;;;;;;;;;8.69;94.78;100525.68;106060;1259;67181;-77
2024/01/27 01:40:22;;;;;;;;;;;;;;;8.70;94.97;100521.43;106037;1254;72767;-77
2024/01/27 01:42:55;;;;;;;;;;;;;;;8.68;95.06;100522.94;105894;1254;60508;-76
2024/01/27 01:45:23;;;;;;;;;;;;;;;8.79;94.31;100518.10;105793;1257;60461;-77
2024/01/27 01:47:57;;;;;;;;;;;;;;;8.83;93.84;100518.39;105919;1258;73870;-77
2024/01/27 01:50:31;;;;;;;;;;;;;;;8.76;94.45;100517.04;106016;1257;68363;-77
2024/01/27 01:53:04;;;;;;;;;;;;;;;8.81;94.10;100519.02;105969;1254;72815;-77
2024/01/27 01:55:38;;;;;;;;;;;;;;;8.74;94.41;100517.13;106010;1254;60543;-76
2024/01/27 01:58:11;;;;;;;;;;;;;;;8.74;94.43;100517.90;106091;1254;60720;-77
2024/01/27 02:00:45;;;;;;;;;;;;;;;8.69;94.94;100513.63;106100;1254;71650;-77
2024/01/27 02:03:19;;;;;;;;;;;;;;;8.72;94.73;100513.36;105952;1253;68706;-77
2024/01/27 02:05:53;;;;;;;;;;;;;;;8.52;95.79;100516.65;105998;1254;72703;-77
2024/01/27 02:08:27;;;;;;;;;;;;;;;8.45;97.02;100518.83;105863;1257;61373;-77
2024/01/27 02:11:02;;;;;;;;;;;;;;;8.45;96.86;100526.24;105958;1253;60642;-77
2024/01/27 02:13:35;;;;;;;;;;;;;;;8.41;97.46;100524.91;106168;1256;73829;-77
2024/01/27 02:16:09;;;;;;;;;;;;;;;8.34;97.80;100528.48;106060;1253;68364;-77
2024/01/27 02:18:43;;;;;;;;;;;;;;;8.27;98.33;100527.08;105967;1254;71473;-77
2024/01/27 02:21:17;;;;;;;;;;;;;;;8.30;98.18;100524.93;106042;1256;60796;-76
2024/01/27 02:23:50;;;;;;;;;;;;;;;8.29;98.42;100524.65;105987;1259;60402;-76
2024/01/27 02:26:24;;;;;;;;;;;;;;;8.35;97.96;100521.91;106000;1254;74364;-77
2024/01/27 02:28:58;;;;;;;;;;;;;;;8.37;97.78;100527.52;107908;1254;67124;-77
2024/01/27 02:31:31;;;;;;;;;;;;;;;8.42;97.28;100528.73;106059;1254;72427;-76
2024/01/27 02:34:05;;;;;;;;;;;;;;;8.37;97.67;100532.43;106001;1257;60498;-76
2024/01/27 02:36:39;;;;;;;;;;;;;;;8.39;97.65;100530.54;105907;1253;60572;-76
2024/01/27 02:39:12;;;;;;;;;;;;;;;8.42;97.24;100533.20;106020;1253;73167;-76
2024/01/27 02:41:46;;;;;;;;;;;;;;;8.39;97.48;100533.00;105953;1253;67604;-77
2024/01/27 02:44:20;;;;;;;;;;;;;;;8.46;97.07;100530.17;105966;1259;71389;-77
2024/01/27 02:46:47;;;;;;;;;;;;;;;8.50;96.69;100535.20;106090;1259;60556;-77
2024/01/27 02:49:21;;;;;;;;;;;;;;;8.49;96.70;100532.85;106173;1256;60545;-78
2024/01/27 02:51:55;;;;;;;;;;;;;;;8.41;97.19;100538.85;106168;1254;72554;-77
2024/01/27 02:54:29;;;;;;;;;;;;;;;8.38;97.43;100540.90;106073;1257;68686;-77
2024/01/27 02:56:56;;;;;;;;;;;;;;;8.36;97.51;100546.64;106073;1254;71498;-77
2024/01/27 02:59:30;;;;;;;;;;;;;;;8.34;97.63;100545.48;106044;1254;60476;-77
2024/01/27 03:02:03;;;;;;;;;;;;;;;8.25;98.29;100548.14;106079;1254;60533;-78
2024/01/27 03:04:31;;;;;;;;;;;;;;;8.25;98.43;100546.67;105821;1254;73835;-77
2024/01/27 03:07:05;;;;;;;;;;;;;;;8.32;97.96;100546.02;106111;1254;67571;-77
2024/01/27 03:09:39;;;;;;;;;;;;;;;8.34;97.80;100542.32;105992;1259;73075;-77
2024/01/27 03:12:12;;;;;;;;;;;;;;;8.39;97.57;100545.02;105987;1257;60649;-78
2024/01/27 03:14:40;;;;;;;;;;;;;;;8.43;97.11;100545.07;105924;1254;60507;-78
2024/01/27 03:17:13;;;;;;;;;;;;;;;8.46;97.00;100542.27;106154;1256;72836;-78
2024/01/27 03:19:47;;;;;;;;;;;;;;;8.50;96.58;100541.74;106102;1259;68716;-77
2024/01/27 03:22:22;;;;;;;;;;;;;;;8.50;96.35;100539.40;105914;1259;71472;-77
2024/01/27 03:24:51;;;;;;;;;;;;;;;8.57;95.84;100541.90;106156;1254;60530;-78
2024/01/27 03:27:25;;;;;;;;;;;;;;;8.61;95.58;100542.13;106002;1256;60360;-77
2024/01/27 03:30:00;;;;;;;;;;;;;;;8.61;95.63;100548.30;106010;1253;72598;-78
2024/01/27 03:32:33;;;;;;;;;;;;;;;8.59;95.59;100546.70;106023;1259;67218;-77
2024/01/27 03:35:01;;;;;;;;;;;;;;;8.50;96.23;100550.91;105991;1256;72459;-77
2024/01/27 03:37:29;;;;;;;;;;;;;;;8.49;96.42;100545.93;106152;1254;60642;-77
2024/01/27 03:40:03;;;;;;;;;;;;;;;8.36;97.18;100540.71;105880;1256;60371;-77
2024/01/27 03:42:36;;;;;;;;;;;;;;;8.31;97.67;100549.98;106040;1254;73833;-77
2024/01/27 03:45:04;;;;;;;;;;;;;;;8.32;97.64;100550.20;105865;1253;175584;-77
2024/01/27 03:47:37;;;;;;;;;;;;;;;8.35;97.49;100550.66;106441;1257;72642;-77
2024/01/27 03:50:11;;;;;;;;;;;;;;;8.32;97.67;100546.23;105884;1259;60540;-77
2024/01/27 03:52:45;;;;;;;;;;;;;;;8.29;98.06;100550.30;105998;1259;60617;-76
2024/01/27 03:55:12;;;;;;;;;;;;;;;8.28;98.23;100546.70;105882;1254;73857;-77
2024/01/27 03:57:46;;;;;;;;;;;;;;;8.31;98.11;100545.20;105846;1259;67677;-77
2024/01/27 04:00:20;;;;;;;;;;;;;;;8.35;97.91;100550.17;106132;1253;71441;-76
2024/01/27 04:02:53;;;;;;;;;;;;;;;8.40;97.53;100547.77;106108;1254;60954;-77
2024/01/27 04:05:21;;;;;;;;;;;;;;;8.36;97.72;100549.41;106001;1255;60466;-76
2024/01/27 04:07:55;;;;;;;;;;;;;;;8.37;97.59;100551.77;106008;1259;73855;-77
2024/01/27 04:10:29;;;;;;;;;;;;;;;8.38;97.44;100557.17;105940;1256;67077;-77
2024/01/27 04:12:57;;;;;;;;;;;;;;;8.37;97.29;100557.05;106177;1259;72675;-77
2024/01/27 04:15:37;;;;;;;;;;;;;;;8.35;97.41;100559.33;106121;1253;60537;-77
2024/01/27 04:18:11;;;;;;;;;;;;;;;8.36;97.39;100556.23;105928;1254;60526;-76
2024/01/27 04:20:45;;;;;;;;;;;;;;;8.37;97.07;100558.63;105944;1258;73834;-77
2024/01/27 04:23:13;;;;;;;;;;;;;;;8.53;96.09;100556.68;105927;1254;68704;-77
2024/01/27 04:25:47;;;;;;;;;;;;;;;8.48;96.02;100553.39;106200;1254;71073;-76
2024/01/27 04:28:21;;;;;;;;;;;;;;;8.82;93.79;100556.35;106053;1254;60617;-77
2024/01/27 04:30:54;;;;;;;;;;;;;;;8.92;92.70;100556.46;106050;1258;60509;-77
2024/01/27 04:33:22;;;;;;;;;;;;;;;8.86;92.90;100556.59;106228;1255;73909;-77
2024/01/27 04:35:55;;;;;;;;;;;;;;;8.92;92.48;100559.13;106053;1254;68650;-77
2024/01/27 04:38:29;;;;;;;;;;;;;;;9.08;91.12;100558.21;106268;1259;72759;-77
2024/01/27 04:41:03;;;;;;;;;;;;;;;8.95;91.80;100559.91;105938;1259;60556;-77
2024/01/27 04:43:30;;;;;;;;;;;;;;;8.92;92.07;100566.92;105984;1254;60364;-77
2024/01/27 04:46:04;;;;;;;;;;;;;;;8.92;92.28;100569.16;106167;1253;72754;-77
2024/01/27 04:48:38;;;;;;;;;;;;;;;9.00;91.33;100565.98;105902;1260;67251;-77
2024/01/27 04:51:12;;;;;;;;;;;;;;;8.96;91.61;100568.79;105692;1260;70481;-77
2024/01/27 04:53:39;;;;;;;;;;;;;;;9.03;91.01;100567.79;106459;1258;60552;-77
2024/01/27 04:56:13;;;;;;;;;;;;;;;9.04;90.83;100567.69;106105;1257;60374;-76
2024/01/27 04:58:47;;;;;;;;;;;;;;;9.02;90.75;100567.90;106029;1256;74910;-79
2024/01/27 05:01:15;;;;;;;;;;;;;;;9.03;90.71;100566.70;105988;1259;66702;-77
2024/01/27 05:03:46;;;;;;;;;;;;;;;8.99;91.03;100568.92;106474;1254;72945;-76
2024/01/27 05:06:19;;;;;;;;;;;;;;;8.90;91.77;100567.85;106083;1259;60477;-76
2024/01/27 05:08:53;;;;;;;;;;;;;;;8.90;91.85;100568.34;105966;1254;60534;-77
2024/01/27 19:09:18;;;;;;;;;;;;;;;9.66;73.06;101223.52;106001;1254;60807;-78
2024/01/27 19:11:46;;;;;;;;;;;;;;;9.61;73.26;101229.91;105989;1253;75968;-79
2024/01/27 19:14:20;;;;;;;;;;;;;;;9.48;74.27;101230.08;106037;1253;70799;-79
2024/01/27 19:16:56;;;;;;;;;;;;;;;9.47;74.40;101233.88;105989;1253;75027;-79
2024/01/27 19:19:23;;;;;;;;;;;;;;;9.67;73.02;101235.98;106226;1254;61438;-79
2024/01/27 19:22:01;;;;;;;;;;;;;;;9.82;71.68;101238.29;106056;1253;60652;-79
2024/01/27 19:24:36;;;;;;;;;;;;;;;9.81;71.85;101241.06;106040;1253;73145;-79
2024/01/27 19:27:04;;;;;;;;;;;;;;;9.78;72.15;101242.35;107885;1257;69216;-78
2024/01/27 19:29:31;;;;;;;;;;;;;;;9.83;72.02;101247.48;106432;1253;74834;-77
2024/01/27 19:32:05;;;;;;;;;;;;;;;9.85;71.57;101250.01;105988;1253;60387;-77
2024/01/27 19:34:33;;;;;;;;;;;;;;;9.78;71.98;101255.22;106139;1256;60934;-79
2024/01/27 19:37:05;;;;;;;;;;;;;;;9.79;72.09;101256.33;105902;1259;75941;-78
2024/01/27 19:39:40;;;;;;;;;;;;;;;9.86;71.58;101259.02;105743;1259;71086;-77
2024/01/27 19:42:13;;;;;;;;;;;;;;;9.96;70.83;101263.24;106133;1253;74748;-77
2024/01/27 19:44:41;;;;;;;;;;;;;;;9.90;70.85;101265.86;105844;1253;62002;-78
2024/01/27 19:47:09;;;;;;;;;;;;;;;9.74;71.78;101267.08;105961;1254;61931;-77
2024/01/27 19:49:43;;;;;;;;;;;;;;;9.64;72.86;101270.34;106055;1255;72827;-77
2024/01/27 19:52:17;;;;;;;;;;;;;;;9.73;71.86;101276.06;105981;1253;70374;-77
2024/01/27 19:54:45;;;;;;;;;;;;;;;9.49;73.67;101276.95;106354;1254;74037;-78
2024/01/27 19:57:13;;;;;;;;;;;;;;;9.31;74.74;101281.02;106197;1256;63202;-79
2024/01/27 19:59:47;;;;;;;;;;;;;;;9.40;74.54;101285.73;106537;1254;60821;-79
2024/01/27 20:02:15;;;;;;;;;;;;;;;9.16;76.31;101289.08;106482;1253;74886;-80
2024/01/27 20:04:45;;;;;;;;;;;;;;;9.29;75.83;101290.69;106032;1253;71111;-79
2024/01/27 20:07:19;;;;;;;;;;;;;;;9.15;76.50;101291.39;106536;1254;74810;-79
2024/01/27 20:09:53;;;;;;;;;;;;;;;8.99;78.10;101295.69;106390;1253;60443;-79
2024/01/27 20:12:30;;;;;;;;;;;;;;;8.97;78.48;101298.98;106636;1255;61856;-79
2024/01/27 20:15:04;;;;;;;;;;;;;;;9.09;77.82;101298.39;106671;1258;76178;-79
2024/01/27 20:17:39;;;;;;;;;;;;;;;9.13;77.23;101299.62;106501;1258;70842;-79
2024/01/27 20:20:13;;;;;;;;;;;;;;;9.11;77.31;101302.99;106865;1257;72700;-79
2024/01/27 20:22:41;;;;;;;;;;;;;;;9.14;76.94;101306.16;106609;1256;60400;-79
2024/01/27 20:25:15;;;;;;;;;;;;;;;9.07;77.42;101303.93;106588;1255;60580;-79
2024/01/27 20:27:49;;;;;;;;;;;;;;;9.03;77.85;101302.88;106565;1253;75959;-78
2024/01/27 20:30:23;;;;;;;;;;;;;;;9.15;77.02;101308.91;107610;1253;69724;-79
2024/01/27 20:32:58;;;;;;;;;;;;;;;9.17;76.75;101312.49;106592;1254;74926;-78
2024/01/27 20:35:32;;;;;;;;;;;;;;;9.07;77.23;101312.01;106513;1257;63009;-78
2024/01/27 20:38:06;;;;;;;;;;;;;;;9.06;77.51;101314.99;106517;1253;61775;-80
2024/01/27 20:40:40;;;;;;;;;;;;;;;8.99;77.88;101314.27;106451;1253;76163;-80
2024/01/27 20:43:09;;;;;;;;;;;;;;;8.95;78.48;101316.11;106538;1256;69752;-79
2024/01/27 20:45:43;;;;;;;;;;;;;;;9.05;77.98;101315.30;106359;1254;73551;-79
2024/01/27 20:48:17;;;;;;;;;;;;;;;9.01;78.39;101322.98;107054;1254;63471;-79
2024/01/27 20:50:56;;;;;;;;;;;;;;;9.09;77.87;101326.20;106590;1258;60450;-78
2024/01/27 20:53:23;;;;;;;;;;;;;;;9.09;78.09;101325.71;106673;1254;76255;-79
2024/01/27 20:55:57;;;;;;;;;;;;;;;9.20;77.35;101327.58;106493;1253;70741;-79
2024/01/27 20:58:31;;;;;;;;;;;;;;;9.25;76.65;101323.73;106464;1259;75412;-79
2024/01/27 21:01:04;;;;;;;;;;;;;;;9.21;76.73;101330.66;106715;1252;60354;-80
2024/01/27 21:03:37;;;;;;;;;;;;;;;9.15;77.30;101332.46;106387;1257;60815;-79
2024/01/27 21:06:10;;;;;;;;;;;;;;;9.19;77.35;101332.53;106711;1253;72695;-78
2024/01/27 21:08:44;;;;;;;;;;;;;;;9.24;77.13;101334.80;106475;1256;67113;-78
2024/01/27 21:11:19;;;;;;;;;;;;;;;9.26;76.89;101341.33;106450;1254;72745;-78
2024/01/27 21:13:50;;;;;;;;;;;;;;;9.32;76.65;101347.52;106770;1254;60635;-78
2024/01/27 21:16:23;;;;;;;;;;;;;;;9.30;76.63;101349.25;106548;1254;60460;-78
2024/01/27 21:18:57;;;;;;;;;;;;;;;9.25;77.15;101353.48;106542;1253;76325;-78
2024/01/27 21:21:31;;;;;;;;;;;;;;;9.26;77.09;101354.95;106831;1253;70746;-79
2024/01/27 21:24:03;;;;;;;;;;;;;;;9.34;76.58;101359.29;107178;1254;74049;-78
2024/01/27 21:26:37;;;;;;;;;;;;;;;9.42;75.96;101361.48;106354;1257;60539;-78
2024/01/27 21:29:11;;;;;;;;;;;;;;;9.37;75.94;101367.02;106671;1259;60498;-79
2024/01/27 21:31:44;;;;;;;;;;;;;;;9.14;78.06;101372.42;106499;1253;73880;-79
2024/01/27 21:34:18;;;;;;;;;;;;;;;9.06;78.84;101375.41;106908;1256;66965;-79
2024/01/27 21:36:51;;;;;;;;;;;;;;;9.23;77.87;101372.24;106468;1254;71708;-78
2024/01/27 21:39:25;;;;;;;;;;;;;;;9.29;77.19;101374.58;106566;1254;60972;-78
2024/01/27 21:42:00;;;;;;;;;;;;;;;9.36;76.60;101378.18;106468;1253;60354;-78
2024/01/27 21:44:27;;;;;;;;;;;;;;;9.43;76.15;101378.78;107367;1254;72560;-79
2024/01/27 21:47:01;;;;;;;;;;;;;;;9.37;76.39;101380.00;106555;1254;69262;-80
2024/01/27 21:49:37;;;;;;;;;;;;;;;9.45;75.61;101379.38;106498;1254;72701;-79
2024/01/27 21:52:12;;;;;;;;;;;;;;;9.37;76.15;101380.66;106557;1256;60578;-79
2024/01/27 21:54:40;;;;;;;;;;;;;;;9.45;75.77;101382.16;106620;1253;60434;-80
2024/01/27 21:57:14;;;;;;;;;;;;;;;9.45;75.65;101383.13;106909;1256;73815;-78
2024/01/27 21:59:48;;;;;;;;;;;;;;;9.43;75.74;101387.52;106371;1259;67115;-79
2024/01/27 22:02:21;;;;;;;;;;;;;;;9.42;75.97;101387.45;106431;1253;71704;-78
2024/01/27 22:04:50;;;;;;;;;;;;;;;9.45;75.70;101389.85;106470;1253;60563;-78
2024/01/27 22:07:24;;;;;;;;;;;;;;;9.47;75.68;101391.24;106888;1254;60543;-78
2024/01/27 22:09:57;;;;;;;;;;;;;;;9.40;75.83;101391.66;106495;1253;73492;-78
2024/01/27 22:12:25;;;;;;;;;;;;;;;9.39;76.19;101387.34;106379;1256;68699;-80
2024/01/27 22:14:57;;;;;;;;;;;;;;;9.40;75.98;101385.13;106435;1254;70445;-80
2024/01/27 22:17:31;;;;;;;;;;;;;;;9.31;76.55;101393.33;106389;1255;60426;-80
2024/01/27 22:20:07;;;;;;;;;;;;;;;9.32;76.67;101393.39;106344;1257;61295;-80
2024/01/27 22:22:36;;;;;;;;;;;;;;;9.36;76.25;101396.56;106555;1256;73013;-80
2024/01/27 22:25:11;;;;;;;;;;;;;;;9.35;76.10;101402.08;106469;1254;68355;-80
2024/01/27 22:27:45;;;;;;;;;;;;;;;9.32;76.28;101404.15;106571;1254;72632;-80
2024/01/27 22:30:18;;;;;;;;;;;;;;;9.07;77.94;101403.39;106708;1257;60860;-79
2024/01/27 22:32:46;;;;;;;;;;;;;;;8.82;80.06;101404.96;106495;1253;60453;-78
2024/01/27 22:35:21;;;;;;;;;;;;;;;8.83;80.47;101411.79;106808;1253;72679;-79
2024/01/27 22:37:56;;;;;;;;;;;;;;;8.79;80.70;101413.95;106730;1254;67460;-78
2024/01/27 22:40:30;;;;;;;;;;;;;;;8.87;80.33;101414.96;106764;1253;72638;-78
2024/01/27 22:42:59;;;;;;;;;;;;;;;8.92;79.90;101414.91;106454;1254;60421;-79
2024/01/27 22:45:34;;;;;;;;;;;;;;;9.01;79.03;101412.73;106385;1257;60442;-80
2024/01/27 22:48:10;;;;;;;;;;;;;;;9.00;78.92;101411.84;106434;1259;73849;-80
2024/01/27 22:50:45;;;;;;;;;;;;;;;9.00;78.97;101410.46;106212;1257;68410;-80
2024/01/27 22:53:14;;;;;;;;;;;;;;;9.04;78.76;101412.93;106375;1256;71410;-80
2024/01/27 22:55:50;;;;;;;;;;;;;;;8.97;79.25;101415.11;106384;1253;60550;-80
2024/01/27 22:58:25;;;;;;;;;;;;;;;8.88;80.13;101413.63;106348;1257;59377;-79
2024/01/27 23:00:52;;;;;;;;;;;;;;;8.90;80.14;101417.38;106267;1259;73859;-78
2024/01/27 23:03:28;;;;;;;;;;;;;;;8.97;79.80;101418.33;105809;1257;68459;-78
2024/01/27 23:06:03;;;;;;;;;;;;;;;8.97;79.61;101418.92;106057;1253;72695;-78
2024/01/27 23:08:38;;;;;;;;;;;;;;;8.92;79.98;101420.09;105877;1256;61095;-79
2024/01/27 23:11:06;;;;;;;;;;;;;;;8.96;79.75;101422.98;105973;1254;60566;-79
2024/01/27 23:13:43;;;;;;;;;;;;;;;8.92;79.82;101427.45;106460;1253;73782;-79
2024/01/27 23:16:19;;;;;;;;;;;;;;;8.89;80.37;101436.81;106629;1253;68580;-79
2024/01/27 23:18:52;;;;;;;;;;;;;;;8.83;80.59;101436.86;106388;1259;71434;-79
2024/01/27 23:21:22;;;;;;;;;;;;;;;8.75;81.36;101439.04;106496;1254;60524;-79
2024/01/27 23:23:57;;;;;;;;;;;;;;;8.74;81.53;101441.34;105961;1254;60562;-79
2024/01/27 23:26:32;;;;;;;;;;;;;;;8.83;81.11;101446.04;105971;1259;74219;-79
2024/01/27 23:29:06;;;;;;;;;;;;;;;8.95;80.13;101442.66;105997;1253;68387;-78
2024/01/27 23:31:35;;;;;;;;;;;;;;;9.21;78.04;101442.63;105835;1257;71471;-79
2024/01/27 23:34:10;;;;;;;;;;;;;;;9.29;76.68;101444.64;106088;1259;60434;-79
2024/01/27 23:36:45;;;;;;;;;;;;;;;9.53;75.14;101445.95;105984;1256;60581;-79
2024/01/27 23:39:19;;;;;;;;;;;;;;;9.57;74.20;101449.39;105907;1253;72597;-79
2024/01/27 23:41:48;;;;;;;;;;;;;;;9.55;74.24;101449.64;105946;1257;67230;-79
2024/01/27 23:44:21;;;;;;;;;;;;;;;9.51;74.40;101446.25;105970;1259;72696;-79
2024/01/27 23:46:55;;;;;;;;;;;;;;;9.51;74.58;101450.66;105975;1257;60546;-78
2024/01/27 23:49:23;;;;;;;;;;;;;;;9.55;74.36;101453.73;107182;1254;60459;-78
2024/01/27 23:51:55;;;;;;;;;;;;;;;9.57;73.90;101454.53;105985;1253;73826;-78
2024/01/27 23:54:28;;;;;;;;;;;;;;;9.71;73.16;101458.35;106129;1259;67423;-78
2024/01/27 23:57:03;;;;;;;;;;;;;;;9.69;72.82;101465.65;106156;1259;72671;-78
2024/01/27 23:59:31;;;;;;;;;;;;;;;9.61;73.54;101465.30;105917;1254;61346;-78
